Time;durP1;ratioP1;P1;durP2;ratioP2;P2;SDS_P1;SDS_P2;PMS_P1;PMS_P2;Temp;Humidity;BMP_temperature;BMP_pressure;BME280_temperature;BME280_humidity;BME280_pressure;Samples;Min_cycle;Max_cycle;Signal;HPM_P1;HPM_P2
2022/05/29 00:01:13;;;;;;;2.40;0.70;;;;;;;;;;5002680;28;20438;-65
2022/05/29 00:03:39;;;;;;;3.88;0.80;;;;;;;;;;5020340;28;21442;-65
2022/05/29 00:06:06;;;;;;;3.67;0.70;;;;;;;;;;5022258;28;20053;-64
2022/05/29 00:08:34;;;;;;;1.80;0.60;;;;;;;;;;5019175;28;20125;-65
2022/05/29 00:11:02;;;;;;;2.20;0.70;;;;;;;;;;5018583;28;20042;-65
2022/05/29 00:13:28;;;;;;;2.60;0.75;;;;;;;;;;5001101;28;20490;-65
2022/05/29 00:15:55;;;;;;;6.70;0.82;;;;;;;;;;5016439;28;20056;-66
2022/05/29 00:18:22;;;;;;;2.45;0.70;;;;;;;;;;5015980;28;20781;-69
2022/05/29 00:20:56;;;;;;;1.63;0.60;;;;;;;;;;5020901;28;20132;-65
2022/05/29 00:23:24;;;;;;;7.88;0.88;;;;;;;;;;5016087;28;20142;-65
2022/05/29 00:25:52;;;;;;;2.95;0.52;;;;;;;;;;5017812;28;20052;-65
2022/05/29 00:28:19;;;;;;;2.97;0.70;;;;;;;;;;5016284;28;20049;-65
2022/05/29 00:30:46;;;;;;;2.47;0.70;;;;;;;;;;5017114;28;20037;-64
2022/05/29 00:33:13;;;;;;;2.05;0.60;;;;;;;;;;5019221;28;20509;-64
2022/05/29 00:35:40;;;;;;;2.85;0.70;;;;;;;;;;5016696;28;20097;-65
2022/05/29 00:38:08;;;;;;;2.63;0.70;;;;;;;;;;5029044;28;20595;-65
2022/05/29 00:40:42;;;;;;;4.10;0.90;;;;;;;;;;4999152;28;20049;-66
2022/05/29 00:43:09;;;;;;;2.85;0.70;;;;;;;;;;5006147;28;20053;-65
2022/05/29 00:46:06;;;;;;;2.38;0.68;;;;;;;;;;5035204;28;20053;-65
2022/05/29 00:48:32;;;;;;;2.25;0.60;;;;;;;;;;5028906;28;20106;-65
2022/05/29 00:51:02;;;;;;;2.25;0.60;;;;;;;;;;5023600;28;20045;-64
2022/05/29 00:53:30;;;;;;;3.72;0.95;;;;;;;;;;5039094;28;20033;-65
2022/05/29 00:55:58;;;;;;;2.72;0.73;;;;;;;;;;5041603;28;20079;-65
2022/05/29 00:58:26;;;;;;;3.45;1.05;;;;;;;;;;5038126;28;20056;-63
2022/05/29 01:00:55;;;;;;;2.47;0.60;;;;;;;;;;5039880;28;20049;-65
2022/05/29 01:03:21;;;;;;;3.08;0.80;;;;;;;;;;5037906;28;20149;-64
2022/05/29 01:05:48;;;;;;;3.08;0.80;;;;;;;;;;5038110;28;20041;-64
2022/05/29 01:08:24;;;;;;;6.15;0.90;;;;;;;;;;5038386;28;20052;-64
2022/05/29 01:10:58;;;;;;;3.35;1.13;;;;;;;;;;5018870;28;20120;-64
2022/05/29 01:13:43;;;;;;;3.28;0.70;;;;;;;;;;5037006;28;21817;-65
2022/05/29 01:16:17;;;;;;;3.88;0.98;;;;;;;;;;5035255;28;20763;-64
2022/05/29 01:19:10;;;;;;;4.88;0.88;;;;;;;;;;5036822;28;20053;-63
2022/05/29 01:21:52;;;;;;;2.70;0.88;;;;;;;;;;5022033;28;20064;-64
2022/05/29 01:24:29;;;;;;;3.45;0.60;;;;;;;;;;5040414;28;20048;-64
2022/05/29 01:27:15;;;;;;;5.13;0.80;;;;;;;;;;5038254;28;20508;-65
2022/05/29 01:30:11;;;;;;;3.75;0.88;;;;;;;;;;5038783;28;20037;-64
2022/05/29 01:32:47;;;;;;;1.77;0.60;;;;;;;;;;4978504;28;20050;-64
2022/05/29 01:35:17;;;;;;;3.30;0.73;;;;;;;;;;5038150;28;20037;-63
2022/05/29 01:37:51;;;;;;;2.80;0.70;;;;;;;;;;5037151;28;20060;-64
2022/05/29 01:40:37;;;;;;;2.50;0.80;;;;;;;;;;5038398;28;20486;-64
2022/05/29 01:43:10;;;;;;;4.13;0.85;;;;;;;;;;5037295;28;20076;-65
2022/05/29 01:45:55;;;;;;;4.78;0.82;;;;;;;;;;5036778;28;20499;-65
2022/05/29 01:48:40;;;;;;;2.47;0.75;;;;;;;;;;5036669;28;20129;-64
2022/05/29 01:51:21;;;;;;;8.07;0.90;;;;;;;;;;5038017;28;20416;-64
2022/05/29 01:53:53;;;;;;;3.40;0.80;;;;;;;;;;5036574;28;20041;-63
2022/05/29 01:56:20;;;;;;;;;;;;;;;;;;5037514;28;20106;-64
2022/05/29 01:58:56;;;;;;;5.05;0.75;;;;;;;;;;5037106;28;19999;-64
2022/05/29 02:01:25;;;;;;;3.53;0.95;;;;;;;;;;5037045;28;20056;-65
2022/05/29 02:03:53;;;;;;;2.58;0.77;;;;;;;;;;5037673;28;20041;-64
2022/05/29 02:06:24;;;;;;;2.80;0.80;;;;;;;;;;5036363;28;20048;-65
2022/05/29 02:09:03;;;;;;;3.08;0.70;;;;;;;;;;5037878;28;20045;-65
2022/05/29 02:11:30;;;;;;;2.95;0.65;;;;;;;;;;5035541;28;20045;-64
2022/05/29 02:14:07;;;;;;;4.45;0.70;;;;;;;;;;5038017;28;20032;-64
2022/05/29 02:16:54;;;;;;;3.20;0.80;;;;;;;;;;5035962;28;20037;-63
2022/05/29 02:19:28;;;;;;;2.60;0.70;;;;;;;;;;5036140;28;20052;-64
2022/05/29 02:22:00;;;;;;;3.50;0.85;;;;;;;;;;5036929;28;20836;-65
2022/05/29 02:24:27;;;;;;;;;;;;;;;;;;5036509;28;20037;-64
2022/05/29 02:27:06;;;;;;;7.15;1.00;;;;;;;;;;5036420;28;19933;-64
2022/05/29 02:29:33;;;;;;;2.50;0.80;;;;;;;;;;5035702;28;20079;-64
2022/05/29 02:32:03;;;;;;;2.50;0.70;;;;;;;;;;5037874;28;20033;-64
2022/05/29 02:34:46;;;;;;;4.28;0.90;;;;;;;;;;5037269;28;20059;-64
2022/05/29 02:37:13;;;;;;;2.70;0.80;;;;;;;;;;5018673;28;20052;-64
2022/05/29 02:39:46;;;;;;;3.83;0.90;;;;;;;;;;5037603;28;20048;-65
2022/05/29 02:42:21;;;;;;;3.70;0.80;;;;;;;;;;5037427;28;20814;-65
2022/05/29 02:44:57;;;;;;;7.05;1.15;;;;;;;;;;5036759;28;20053;-64
2022/05/29 02:47:38;;;;;;;2.70;0.80;;;;;;;;;;5035482;28;20045;-64
2022/05/29 02:50:07;;;;;;;3.20;0.70;;;;;;;;;;5037015;28;20045;-64
2022/05/29 02:52:34;;;;;;;2.05;0.60;;;;;;;;;;5034921;28;20520;-64
2022/05/29 02:55:00;;;;;;;2.92;0.88;;;;;;;;;;5052007;28;20049;-65
2022/05/29 02:57:27;;;;;;;6.07;0.80;;;;;;;;;;5034502;28;20588;-65
2022/05/29 03:00:02;;;;;;;4.68;0.98;;;;;;;;;;5038929;28;20041;-65
2022/05/29 03:02:44;;;;;;;4.05;1.13;;;;;;;;;;5037344;28;20032;-66
2022/05/29 03:05:22;;;;;;;3.05;1.00;;;;;;;;;;5040777;28;20040;-61
2022/05/29 03:07:58;;;;;;;3.40;0.70;;;;;;;;;;5039230;28;20060;-60
2022/05/29 03:10:28;;;;;;;3.30;0.80;;;;;;;;;;5039257;28;20038;-65
2022/05/29 03:12:58;;;;;;;6.13;0.90;;;;;;;;;;5038769;28;20481;-62
2022/05/29 03:15:43;;;;;;;3.83;1.05;;;;;;;;;;5037469;28;20048;-59
2022/05/29 03:18:27;;;;;;;3.83;1.00;;;;;;;;;;5037873;28;20162;-64
2022/05/29 03:21:04;;;;;;;3.40;0.90;;;;;;;;;;5013108;28;20041;-65
2022/05/29 03:23:34;;;;;;;3.90;0.80;;;;;;;;;;5037002;28;20047;-65
2022/05/29 03:26:06;;;;;;;5.68;0.90;;;;;;;;;;5036254;28;20037;-66
2022/05/29 03:28:45;;;;;;;3.70;1.20;;;;;;;;;;5035864;28;20052;-66
2022/05/29 03:31:13;;;;;;;5.68;1.38;;;;;;;;;;5036592;28;20527;-65
2022/05/29 03:33:41;;;;;;;4.60;1.40;;;;;;;;;;5035241;28;21021;-65
2022/05/29 03:36:11;;;;;;;2.92;1.00;;;;;;;;;;5035943;28;20044;-65
2022/05/29 03:38:38;;;;;;;3.83;1.20;;;;;;;;;;5033037;28;20049;-65
2022/05/29 03:41:14;;;;;;;4.45;0.90;;;;;;;;;;5036475;28;20083;-65
2022/05/29 03:43:42;;;;;;;8.27;1.00;;;;;;;;;;5034702;28;20454;-66
2022/05/29 03:46:08;;;;;;;3.85;1.20;;;;;;;;;;5034619;28;20041;-64
2022/05/29 03:48:36;;;;;;;5.72;1.40;;;;;;;;;;5034602;28;20101;-65
2022/05/29 03:51:06;;;;;;;3.83;0.85;;;;;;;;;;5035837;28;20041;-63
2022/05/29 03:53:33;;;;;;;4.88;1.20;;;;;;;;;;5033194;28;20159;-65
2022/05/29 03:56:00;;;;;;;2.20;0.70;;;;;;;;;;5034992;28;20051;-65
2022/05/29 03:58:27;;;;;;;4.30;0.90;;;;;;;;;;5034136;28;20139;-65
2022/05/29 04:00:54;;;;;;;3.38;0.80;;;;;;;;;;5035627;28;20053;-64
2022/05/29 04:03:20;;;;;;;2.15;0.77;;;;;;;;;;5034493;28;20073;-64
2022/05/29 04:05:47;;;;;;;4.22;0.80;;;;;;;;;;5034832;28;20812;-64
2022/05/29 04:13:45;;;;;;;4.45;0.93;;;;;;;;;;5033716;28;20055;-65
2022/05/29 04:16:12;;;;;;;3.05;0.80;;;;;;;;;;5035658;28;20175;-65
2022/05/29 04:18:38;;;;;;;3.92;0.80;;;;;;;;;;5034725;28;20210;-65
2022/05/29 04:21:08;;;;;;;2.65;0.80;;;;;;;;;;5034741;28;20535;-63
2022/05/29 04:23:35;;;;;;;3.20;1.00;;;;;;;;;;5035322;28;20460;-64
2022/05/29 04:26:02;;;;;;;3.03;0.93;;;;;;;;;;5035778;28;20049;-65
2022/05/29 04:28:28;;;;;;;4.65;0.88;;;;;;;;;;5035310;28;20040;-62
2022/05/29 04:30:55;;;;;;;2.90;0.82;;;;;;;;;;5034933;28;20045;-64
2022/05/29 04:33:22;;;;;;;3.13;0.90;;;;;;;;;;5035358;28;20241;-65
2022/05/29 04:35:50;;;;;;;4.10;1.17;;;;;;;;;;5036449;28;20041;-65
2022/05/29 04:38:17;;;;;;;5.70;0.98;;;;;;;;;;5035006;28;21686;-63
2022/05/29 04:40:45;;;;;;;6.57;1.40;;;;;;;;;;5034954;28;20041;-63
2022/05/29 04:43:12;;;;;;;5.00;1.30;;;;;;;;;;5031211;28;20807;-63
2022/05/29 04:45:43;;;;;;;4.05;1.20;;;;;;;;;;5034920;28;20103;-63
2022/05/29 04:48:10;;;;;;;6.75;1.30;;;;;;;;;;5035405;28;20036;-62
2022/05/29 04:50:37;;;;;;;8.05;1.08;;;;;;;;;;5035394;28;20088;-62
2022/05/29 04:53:04;;;;;;;4.70;0.90;;;;;;;;;;5035328;28;20049;-63
2022/05/29 04:55:31;;;;;;;5.20;1.05;;;;;;;;;;5034855;28;20072;-62
2022/05/29 04:57:58;;;;;;;5.30;1.33;;;;;;;;;;5034609;28;20041;-62
2022/05/29 05:00:25;;;;;;;6.95;1.15;;;;;;;;;;5034743;28;20083;-61
2022/05/29 05:02:52;;;;;;;7.35;1.20;;;;;;;;;;5035423;28;20044;-62
2022/05/29 05:05:19;;;;;;;8.27;1.50;;;;;;;;;;5015857;28;20417;-62
2022/05/29 05:07:46;;;;;;;4.28;1.25;;;;;;;;;;5033766;28;20045;-62
2022/05/29 05:10:15;;;;;;;4.07;1.10;;;;;;;;;;5053655;28;20079;-63
2022/05/29 05:12:42;;;;;;;3.30;1.20;;;;;;;;;;5036006;28;20215;-63
2022/05/29 05:15:11;;;;;;;3.97;1.02;;;;;;;;;;5037244;28;20655;-63
2022/05/29 05:17:37;;;;;;;3.88;1.50;;;;;;;;;;5036189;28;20154;-62
2022/05/29 05:20:05;;;;;;;4.65;1.73;;;;;;;;;;5037199;28;20052;-63
2022/05/29 05:22:32;;;;;;;6.35;1.65;;;;;;;;;;5035051;28;20041;-64
2022/05/29 05:24:58;;;;;;;5.82;1.73;;;;;;;;;;5052843;28;20036;-63
2022/05/29 05:27:25;;;;;;;7.47;2.30;;;;;;;;;;5036343;28;20041;-60
2022/05/29 05:29:52;;;;;;;4.80;1.23;;;;;;;;;;5019509;28;20041;-61
2022/05/29 05:32:19;;;;;;;9.07;1.35;;;;;;;;;;5038265;28;20045;-62
2022/05/29 05:34:45;;;;;;;3.13;1.15;;;;;;;;;;5037557;28;20098;-61
2022/05/29 05:37:12;;;;;;;4.75;1.60;;;;;;;;;;5035863;28;20100;-62
2022/05/29 05:39:39;;;;;;;4.45;1.23;;;;;;;;;;5035606;28;20402;-62
2022/05/29 05:42:06;;;;;;;2.83;0.80;;;;;;;;;;5026922;28;20029;-62
2022/05/29 05:44:33;;;;;;;3.83;0.90;;;;;;;;;;5036258;28;20569;-63
2022/05/29 05:47:00;;;;;;;3.25;0.77;;;;;;;;;;5038390;28;20395;-65
2022/05/29 05:49:26;;;;;;;2.55;0.80;;;;;;;;;;5038496;28;20036;-63
2022/05/29 05:51:55;;;;;;;2.85;0.82;;;;;;;;;;5038958;28;20045;-63
2022/05/29 05:54:21;;;;;;;2.92;0.70;;;;;;;;;;5037807;28;20594;-62
2022/05/29 05:56:52;;;;;;;2.53;0.73;;;;;;;;;;5031283;28;20393;-62
2022/05/29 05:59:19;;;;;;;3.60;1.10;;;;;;;;;;5049385;28;20481;-63
2022/05/29 06:01:46;;;;;;;3.00;0.80;;;;;;;;;;5039191;28;20036;-62
2022/05/29 06:04:13;;;;;;;3.33;1.10;;;;;;;;;;5039719;28;20041;-64
2022/05/29 06:06:39;;;;;;;2.83;1.05;;;;;;;;;;5029323;28;20124;-61
2022/05/29 06:09:06;;;;;;;2.85;0.95;;;;;;;;;;5038476;28;20149;-63
2022/05/29 06:11:33;;;;;;;3.28;0.95;;;;;;;;;;5038216;28;20486;-62
2022/05/29 06:14:00;;;;;;;2.40;0.60;;;;;;;;;;5037883;28;20128;-62
2022/05/29 06:16:27;;;;;;;2.45;0.50;;;;;;;;;;5036162;28;20159;-61
2022/05/29 06:18:53;;;;;;;3.22;0.70;;;;;;;;;;5036843;28;20049;-61
2022/05/29 06:21:20;;;;;;;2.03;0.60;;;;;;;;;;5039743;28;20041;-62
2022/05/29 06:23:47;;;;;;;14.30;1.23;;;;;;;;;;5016147;28;20151;-63
2022/05/29 06:26:13;;;;;;;5.03;0.80;;;;;;;;;;5037594;28;20476;-63
2022/05/29 06:28:41;;;;;;;3.28;0.90;;;;;;;;;;5035666;28;20049;-62
2022/05/29 06:31:09;;;;;;;3.70;0.85;;;;;;;;;;5035133;28;20033;-62
2022/05/29 06:33:37;;;;;;;4.43;1.02;;;;;;;;;;5035593;28;20033;-62
2022/05/29 06:36:07;;;;;;;3.45;0.90;;;;;;;;;;5036247;28;20118;-63
2022/05/29 06:38:34;;;;;;;5.80;1.00;;;;;;;;;;5036916;28;20049;-63
2022/05/29 06:41:01;;;;;;;3.42;1.00;;;;;;;;;;5036815;28;20033;-62
2022/05/29 06:43:27;;;;;;;4.43;1.05;;;;;;;;;;5035537;28;20866;-62
2022/05/29 06:46:04;;;;;;;2.45;0.68;;;;;;;;;;5034545;28;20041;-62
2022/05/29 06:48:35;;;;;;;4.38;0.70;;;;;;;;;;5035007;28;20040;-63
2022/05/29 06:51:12;;;;;;;1.83;0.63;;;;;;;;;;5034181;28;20049;-61
2022/05/29 06:53:39;;;;;;;3.10;0.60;;;;;;;;;;5032850;28;20417;-62
2022/05/29 06:56:06;;;;;;;4.65;1.00;;;;;;;;;;5033615;28;20068;-62
2022/05/29 06:58:33;;;;;;;3.90;0.85;;;;;;;;;;5034666;28;20056;-62
2022/05/29 07:09:23;;;;;;;4.60;0.90;;;;;;;;;;5035226;28;20457;-62
2022/05/29 07:11:50;;;;;;;4.18;0.73;;;;;;;;;;5036216;28;20393;-62
2022/05/29 07:14:18;;;;;;;3.42;0.82;;;;;;;;;;5034772;28;20130;-62
2022/05/29 07:16:44;;;;;;;5.65;0.95;;;;;;;;;;5034229;28;20083;-62
2022/05/29 07:19:13;;;;;;;4.55;0.70;;;;;;;;;;5033789;28;20041;-63
2022/05/29 07:21:40;;;;;;;2.50;0.60;;;;;;;;;;5034036;28;20402;-62
2022/05/29 07:24:07;;;;;;;3.03;0.70;;;;;;;;;;5034238;28;20116;-63
2022/05/29 07:26:35;;;;;;;2.58;0.75;;;;;;;;;;5033052;28;20052;-63
2022/05/29 07:29:01;;;;;;;3.35;0.95;;;;;;;;;;5034862;28;20512;-63
2022/05/29 07:31:28;;;;;;;4.07;1.00;;;;;;;;;;5033151;28;20082;-60
2022/05/29 07:33:55;;;;;;;3.33;0.90;;;;;;;;;;5033889;28;20148;-63
2022/05/29 07:36:26;;;;;;;2.83;0.90;;;;;;;;;;5034017;28;20033;-62
2022/05/29 07:38:53;;;;;;;4.05;1.08;;;;;;;;;;5032604;28;20057;-62
2022/05/29 07:44:05;;;;;;;2.22;0.80;;;;;;;;;;5033881;28;20056;-63
2022/05/29 07:46:32;;;;;;;3.83;1.13;;;;;;;;;;5033692;28;20213;-63
2022/05/29 07:48:58;;;;;;;3.38;1.00;;;;;;;;;;5033733;28;20464;-63
2022/05/29 07:51:25;;;;;;;2.85;0.90;;;;;;;;;;5032850;28;20045;-63
2022/05/29 07:53:52;;;;;;;6.22;2.90;;;;;;;;;;5034227;28;20044;-63
2022/05/29 07:56:19;;;;;;;6.75;2.00;;;;;;;;;;5034659;28;20373;-63
2022/05/29 07:58:46;;;;;;;5.10;1.30;;;;;;;;;;5033492;28;20893;-63
2022/05/29 08:01:13;;;;;;;6.57;1.23;;;;;;;;;;5033071;28;20037;-63
2022/05/29 08:03:40;;;;;;;3.38;0.90;;;;;;;;;;5031538;28;20367;-62
2022/05/29 08:06:06;;;;;;;2.88;0.90;;;;;;;;;;5034075;28;20044;-62
2022/05/29 08:08:33;;;;;;;2.60;0.90;;;;;;;;;;5033529;28;20036;-62
2022/05/29 08:11:01;;;;;;;2.80;0.90;;;;;;;;;;5033205;28;20041;-61
2022/05/29 08:13:28;;;;;;;1.90;0.60;;;;;;;;;;5033205;28;20037;-63
2022/05/29 08:15:56;;;;;;;6.15;1.10;;;;;;;;;;5033796;28;20040;-62
2022/05/29 08:18:22;;;;;;;2.47;0.70;;;;;;;;;;5032250;28;20080;-64
2022/05/29 08:20:49;;;;;;;8.52;1.20;;;;;;;;;;5034258;28;20037;-64
2022/05/29 08:23:16;;;;;;;2.15;0.70;;;;;;;;;;5033927;28;20033;-63
2022/05/29 08:31:13;;;;;;;2.03;0.75;;;;;;;;;;5035424;28;20098;-62
2022/05/29 08:33:40;;;;;;;2.20;0.60;;;;;;;;;;5049745;28;20045;-62
2022/05/29 08:36:10;;;;;;;3.13;0.75;;;;;;;;;;5032975;28;20508;-61
2022/05/29 08:38:38;;;;;;;4.45;0.70;;;;;;;;;;5033874;28;20053;-63
2022/05/29 08:41:07;;;;;;;2.38;0.75;;;;;;;;;;5034914;28;20049;-63
2022/05/29 08:43:35;;;;;;;2.03;0.50;;;;;;;;;;5032597;28;20060;-63
2022/05/29 08:46:23;;;;;;;2.47;0.70;;;;;;;;;;5036068;28;20044;-63
2022/05/29 08:48:51;;;;;;;2.25;0.70;;;;;;;;;;5037252;28;20044;-63
2022/05/29 08:51:18;;;;;;;2.00;0.60;;;;;;;;;;5035158;28;20040;-63
2022/05/29 08:53:53;;;;;;;2.10;0.68;;;;;;;;;;5033533;28;20094;-62
2022/05/29 08:56:38;;;;;;;1.98;0.60;;;;;;;;;;5032783;28;20036;-62
2022/05/29 08:59:16;;;;;;;1.77;0.50;;;;;;;;;;5032221;28;20072;-62
2022/05/29 09:02:12;;;;;;;2.72;0.65;;;;;;;;;;5032505;28;20628;-62
2022/05/29 09:04:52;;;;;;;2.33;0.77;;;;;;;;;;4992836;28;20034;-61
2022/05/29 09:07:22;;;;;;;2.25;0.70;;;;;;;;;;5031524;28;20048;-61
2022/05/29 09:09:56;;;;;;;2.72;0.73;;;;;;;;;;5033720;28;20494;-61
2022/05/29 09:12:26;;;;;;;2.42;0.57;;;;;;;;;;5032656;28;20094;-63
2022/05/29 09:14:59;;;;;;;5.53;0.77;;;;;;;;;;5036001;28;20217;-63
2022/05/29 09:17:35;;;;;;;3.05;0.70;;;;;;;;;;5035842;28;20921;-62
2022/05/29 09:20:01;;;;;;;1.58;0.52;;;;;;;;;;5035667;28;20120;-62
2022/05/29 09:22:30;;;;;;;3.15;0.63;;;;;;;;;;5036144;28;20401;-62
2022/05/29 09:25:00;;;;;;;2.05;0.60;;;;;;;;;;5036145;28;20041;-62
2022/05/29 09:27:26;;;;;;;2.13;0.70;;;;;;;;;;5033652;28;20034;-62
2022/05/29 09:29:54;;;;;;;2.65;0.82;;;;;;;;;;5035826;28;20079;-62
2022/05/29 09:32:24;;;;;;;2.03;0.57;;;;;;;;;;5034981;28;20044;-62
2022/05/29 09:34:59;;;;;;;2.60;0.70;;;;;;;;;;5035534;28;20093;-61
2022/05/29 09:37:30;;;;;;;2.20;0.60;;;;;;;;;;5035430;28;20052;-61
2022/05/29 09:39:59;;;;;;;2.08;0.70;;;;;;;;;;5035870;28;20041;-61
2022/05/29 09:42:38;;;;;;;2.70;0.70;;;;;;;;;;5035213;28;20091;-61
2022/05/29 09:45:11;;;;;;;1.92;0.60;;;;;;;;;;5033659;28;20080;-61
2022/05/29 09:50:26;;;;;;;3.40;0.82;;;;;;;;;;5036149;28;20124;-62
2022/05/29 09:52:53;;;;;;;1.88;0.60;;;;;;;;;;5035188;28;20033;-60
2022/05/29 09:55:29;;;;;;;2.85;0.80;;;;;;;;;;5034648;28;20469;-61
2022/05/29 09:57:55;;;;;;;1.10;0.50;;;;;;;;;;5035634;28;20061;-61
2022/05/29 10:00:35;;;;;;;2.80;0.70;;;;;;;;;;5037524;28;20091;-61
2022/05/29 10:03:02;;;;;;;2.55;0.70;;;;;;;;;;5036431;28;20568;-61
2022/05/29 10:05:39;;;;;;;2.38;0.63;;;;;;;;;;5036167;28;20042;-61
2022/05/29 10:08:20;;;;;;;2.63;0.63;;;;;;;;;;5034325;28;20781;-61
2022/05/29 10:10:47;;;;;;;2.00;0.60;;;;;;;;;;5034827;28;20122;-61
2022/05/29 10:13:34;;;;;;;1.90;0.70;;;;;;;;;;5038481;28;20040;-62
2022/05/29 10:16:00;;;;;;;2.33;0.63;;;;;;;;;;5036210;28;20052;-61
2022/05/29 10:18:33;;;;;;;1.55;0.60;;;;;;;;;;5036575;28;20066;-62
2022/05/29 10:21:06;;;;;;;2.23;0.77;;;;;;;;;;5037218;28;20049;-62
2022/05/29 10:23:35;;;;;;;2.88;0.73;;;;;;;;;;5034441;28;20290;-61
2022/05/29 10:26:07;;;;;;;2.20;0.70;;;;;;;;;;5034597;28;20523;-62
2022/05/29 10:28:36;;;;;;;1.98;0.60;;;;;;;;;;5035268;28;20123;-61
2022/05/29 10:31:05;;;;;;;1.75;0.63;;;;;;;;;;5035547;28;20049;-61
2022/05/29 10:33:33;;;;;;;5.30;0.80;;;;;;;;;;5034718;28;20139;-61
2022/05/29 10:36:19;;;;;;;2.05;0.60;;;;;;;;;;5034660;28;20036;-61
2022/05/29 10:38:46;;;;;;;1.90;0.68;;;;;;;;;;5036267;28;20431;-62
2022/05/29 10:41:13;;;;;;;3.10;0.70;;;;;;;;;;5039593;28;20095;-62
2022/05/29 10:43:40;;;;;;;2.65;0.80;;;;;;;;;;5039637;28;20073;-62
2022/05/29 10:46:18;;;;;;;1.77;0.60;;;;;;;;;;5038200;28;20107;-63
2022/05/29 10:49:03;;;;;;;2.63;0.73;;;;;;;;;;5038336;28;20037;-62
2022/05/29 10:51:39;;;;;;;1.73;0.60;;;;;;;;;;5038735;28;20029;-62
2022/05/29 10:54:11;;;;;;;2.38;0.77;;;;;;;;;;5037810;28;20033;-62
2022/05/29 10:56:45;;;;;;;1.65;0.50;;;;;;;;;;5036873;28;20123;-62
2022/05/29 10:59:25;;;;;;;1.70;0.60;;;;;;;;;;5040861;28;20683;-62
2022/05/29 11:04:49;;;;;;;2.58;0.70;;;;;;;;;;5040492;28;21921;-62
2022/05/29 11:07:34;;;;;;;3.53;0.70;;;;;;;;;;5038541;28;20698;-62
2022/05/29 11:10:03;;;;;;;2.60;0.90;;;;;;;;;;5039343;28;20045;-61
2022/05/29 11:12:33;;;;;;;3.22;1.10;;;;;;;;;;5035341;28;20546;-61
2022/05/29 11:15:09;;;;;;;2.80;0.75;;;;;;;;;;5017480;28;20048;-62
2022/05/29 11:17:46;;;;;;;2.60;0.80;;;;;;;;;;5032169;28;20049;-62
2022/05/29 11:20:13;;;;;;;1.90;0.68;;;;;;;;;;5034486;28;20120;-62
2022/05/29 11:22:51;;;;;;;1.48;0.52;;;;;;;;;;5035834;28;22662;-62
2022/05/29 11:25:23;;;;;;;2.38;0.77;;;;;;;;;;5035008;28;20048;-63
2022/05/29 11:27:55;;;;;;;2.28;0.60;;;;;;;;;;5034270;28;20036;-62
2022/05/29 11:30:40;;;;;;;3.47;0.82;;;;;;;;;;5034565;28;20040;-62
2022/05/29 11:33:25;;;;;;;1.77;0.50;;;;;;;;;;5033842;28;20033;-63
2022/05/29 11:36:02;;;;;;;1.90;0.55;;;;;;;;;;5032777;28;20036;-62
2022/05/29 11:38:47;;;;;;;2.28;0.70;;;;;;;;;;5033801;28;20049;-61
2022/05/29 11:41:20;;;;;;;2.65;0.60;;;;;;;;;;5035755;28;20029;-62
2022/05/29 11:43:54;;;;;;;3.10;0.50;;;;;;;;;;5035868;28;20060;-63
2022/05/29 11:52:24;;;;;;;4.78;0.70;;;;;;;;;;5034747;28;20059;-62
2022/05/29 11:55:14;;;;;;;3.72;0.70;;;;;;;;;;5035110;28;20071;-61
2022/05/29 11:58:00;;;;;;;3.13;0.60;;;;;;;;;;5033228;28;20414;-62
2022/05/29 12:00:33;;;;;;;3.13;0.80;;;;;;;;;;5023410;28;20037;-62
2022/05/29 12:03:18;;;;;;;2.50;0.70;;;;;;;;;;5033543;28;20044;-62
2022/05/29 12:06:05;;;;;;;1.80;0.50;;;;;;;;;;5033788;28;20041;-63
2022/05/29 12:08:34;;;;;;;4.57;0.80;;;;;;;;;;5035176;28;20037;-63
2022/05/29 12:11:09;;;;;;;3.38;0.70;;;;;;;;;;5037073;28;20382;-64
2022/05/29 12:13:51;;;;;;;2.00;0.70;;;;;;;;;;5036076;28;20044;-64
2022/05/29 12:16:21;;;;;;;3.08;0.60;;;;;;;;;;5034937;28;20525;-64
2022/05/29 12:18:50;;;;;;;1.55;0.60;;;;;;;;;;5032233;28;20103;-63
2022/05/29 12:21:21;;;;;;;1.48;0.40;;;;;;;;;;5034229;28;20041;-63
2022/05/29 12:23:49;;;;;;;2.33;0.70;;;;;;;;;;5033227;28;20049;-63
2022/05/29 12:26:24;;;;;;;1.50;0.55;;;;;;;;;;5049965;28;20048;-63
2022/05/29 12:28:54;;;;;;;3.67;0.57;;;;;;;;;;5032955;28;20060;-61
2022/05/29 12:31:30;;;;;;;3.20;0.60;;;;;;;;;;5034035;28;20040;-63
2022/05/29 12:33:57;;;;;;;2.63;0.60;;;;;;;;;;5033664;28;20053;-63
2022/05/29 12:36:42;;;;;;;1.48;0.60;;;;;;;;;;5032156;28;20900;-63
2022/05/29 12:39:19;;;;;;;1.63;0.50;;;;;;;;;;5032888;28;20060;-64
2022/05/29 12:42:12;;;;;;;3.78;0.60;;;;;;;;;;5032017;28;20045;-64
2022/05/29 12:44:47;;;;;;;1.88;0.57;;;;;;;;;;5032604;28;20134;-63
2022/05/29 12:47:22;;;;;;;5.90;0.65;;;;;;;;;;5032713;28;20048;-64
2022/05/29 12:49:58;;;;;;;1.10;0.40;;;;;;;;;;5035735;28;20056;-64
2022/05/29 12:52:44;;;;;;;0.82;0.40;;;;;;;;;;5036798;28;20041;-63
2022/05/29 12:55:13;;;;;;;5.50;0.70;;;;;;;;;;5016656;28;20053;-62
2022/05/29 12:57:55;;;;;;;1.90;0.68;;;;;;;;;;5038233;28;20057;-62
2022/05/29 13:00:29;;;;;;;3.05;0.70;;;;;;;;;;5039051;28;20048;-62
2022/05/29 13:02:56;;;;;;;5.35;0.70;;;;;;;;;;5038891;28;20498;-62
2022/05/29 13:05:31;;;;;;;1.55;0.50;;;;;;;;;;5038031;28;20085;-62
2022/05/29 13:08:06;;;;;;;2.92;0.50;;;;;;;;;;5038353;28;20044;-63
2022/05/29 13:10:34;;;;;;;1.33;0.50;;;;;;;;;;5038164;28;20052;-61
2022/05/29 13:13:01;;;;;;;3.90;0.63;;;;;;;;;;5039620;28;20129;-61
2022/05/29 13:15:32;;;;;;;2.08;0.45;;;;;;;;;;5037275;28;20044;-62
2022/05/29 13:18:05;;;;;;;2.88;0.60;;;;;;;;;;5037537;28;20104;-61
2022/05/29 13:20:52;;;;;;;5.13;0.60;;;;;;;;;;5036665;28;20062;-64
2022/05/29 13:23:31;;;;;;;1.98;0.40;;;;;;;;;;5036303;28;20070;-62
2022/05/29 13:25:58;;;;;;;1.85;0.50;;;;;;;;;;5035621;28;20092;-63
2022/05/29 13:28:41;;;;;;;1.70;0.50;;;;;;;;;;5035631;28;20148;-64
2022/05/29 13:31:08;;;;;;;;;;;;;;;;;;5037528;28;20140;-64
2022/05/29 13:33:36;;;;;;;2.40;0.68;;;;;;;;;;5037249;28;19921;-62
2022/05/29 13:36:03;;;;;;;3.63;0.70;;;;;;;;;;5035907;28;20432;-62
2022/05/29 13:38:45;;;;;;;5.72;0.70;;;;;;;;;;5035458;28;20064;-62
2022/05/29 13:41:32;;;;;;;1.95;0.60;;;;;;;;;;5036011;28;20049;-62
2022/05/29 13:44:18;;;;;;;4.00;0.65;;;;;;;;;;5019940;28;20045;-62
2022/05/29 13:46:45;;;;;;;2.65;0.55;;;;;;;;;;5015727;28;20049;-61
2022/05/29 13:49:15;;;;;;;2.55;0.60;;;;;;;;;;5017161;28;20080;-61
2022/05/29 13:51:44;;;;;;;6.95;0.70;;;;;;;;;;5008014;28;20037;-63
2022/05/29 13:54:21;;;;;;;1.30;0.50;;;;;;;;;;5017816;28;20393;-63
2022/05/29 13:56:47;;;;;;;4.15;1.05;;;;;;;;;;5018608;28;20053;-63
2022/05/29 14:04:55;;;;;;;2.35;0.52;;;;;;;;;;5018659;28;20204;-62
2022/05/29 14:07:23;;;;;;;3.25;0.73;;;;;;;;;;5020947;28;20080;-62
2022/05/29 14:10:08;;;;;;;2.15;0.52;;;;;;;;;;5022134;28;20359;-62
2022/05/29 14:12:35;;;;;;;2.63;0.80;;;;;;;;;;5019996;28;20522;-63
2022/05/29 14:15:20;;;;;;;2.55;0.55;;;;;;;;;;5022385;28;20402;-63
2022/05/29 14:17:47;;;;;;;1.13;0.50;;;;;;;;;;5020332;28;20148;-63
2022/05/29 14:20:30;;;;;;;4.53;0.50;;;;;;;;;;5020119;28;20037;-62
2022/05/29 14:23:02;;;;;;;1.17;0.47;;;;;;;;;;5015318;28;20398;-63
2022/05/29 14:25:47;;;;;;;4.60;0.60;;;;;;;;;;5016342;28;20033;-63
2022/05/29 14:28:23;;;;;;;1.20;0.40;;;;;;;;;;5016961;28;20055;-63
2022/05/29 14:30:58;;;;;;;1.33;0.50;;;;;;;;;;5015686;28;20037;-62
2022/05/29 14:33:34;;;;;;;1.30;0.45;;;;;;;;;;5014610;28;20037;-62
2022/05/29 14:36:16;;;;;;;3.72;0.40;;;;;;;;;;5016814;28;20041;-62
2022/05/29 14:38:55;;;;;;;1.55;0.43;;;;;;;;;;5015119;28;20045;-62
2022/05/29 14:41:27;;;;;;;2.38;0.50;;;;;;;;;;5016862;28;20041;-63
2022/05/29 14:43:54;;;;;;;5.18;0.60;;;;;;;;;;5016352;28;20873;-63
2022/05/29 14:46:29;;;;;;;0.63;0.30;;;;;;;;;;5017127;28;20061;-63
2022/05/29 14:49:02;;;;;;;0.55;0.38;;;;;;;;;;5016188;28;20433;-63
2022/05/29 14:51:28;;;;;;;;;;;;;;;;;;5016585;28;20041;-64
2022/05/29 14:54:00;;;;;;;9.07;0.70;;;;;;;;;;5016752;28;20392;-66
2022/05/29 14:56:38;;;;;;;5.10;0.50;;;;;;;;;;5017261;28;21896;-61
2022/05/29 14:59:34;;;;;;;1.15;0.40;;;;;;;;;;5016037;28;20703;-63
2022/05/29 15:02:02;;;;;;;1.38;0.40;;;;;;;;;;5007907;28;20049;-63
2022/05/29 15:04:30;;;;;;;1.48;0.38;;;;;;;;;;5017781;28;20068;-63
2022/05/29 15:12:40;;;;;;;1.27;0.38;;;;;;;;;;5016662;28;20052;-63
2022/05/29 15:15:23;;;;;;;2.08;0.45;;;;;;;;;;5018143;28;20141;-63
2022/05/29 15:17:51;;;;;;;5.97;0.63;;;;;;;;;;5016791;28;20045;-63
2022/05/29 15:26:16;;;;;;;2.58;0.40;;;;;;;;;;5015474;28;20060;-63
2022/05/29 15:28:44;;;;;;;1.00;0.40;;;;;;;;;;5012552;28;20037;-62
2022/05/29 15:31:13;;;;;;;2.30;0.50;;;;;;;;;;5015545;28;20042;-64
2022/05/29 15:33:42;;;;;;;1.75;0.50;;;;;;;;;;5015224;28;20084;-63
2022/05/29 15:36:12;;;;;;;2.15;0.45;;;;;;;;;;5016694;28;20505;-62
2022/05/29 15:39:00;;;;;;;2.40;0.43;;;;;;;;;;5015268;28;20376;-63
2022/05/29 15:41:33;;;;;;;1.58;0.50;;;;;;;;;;5014271;28;20045;-63
2022/05/29 15:44:18;;;;;;;6.10;0.60;;;;;;;;;;5016281;28;20054;-64
2022/05/29 15:46:45;;;;;;;2.35;0.40;;;;;;;;;;5016781;28;20202;-64
2022/05/29 15:49:20;;;;;;;6.47;1.20;;;;;;;;;;5017139;28;20054;-63
2022/05/29 15:52:10;;;;;;;1.80;0.60;;;;;;;;;;5015410;28;20041;-64
2022/05/29 15:55:03;;;;;;;4.13;0.50;;;;;;;;;;5009405;28;20048;-63
2022/05/29 15:57:36;;;;;;;1.85;0.50;;;;;;;;;;4998076;28;20115;-63
2022/05/29 16:00:08;;;;;;;5.65;0.43;;;;;;;;;;5015959;28;20049;-64
2022/05/29 16:02:47;;;;;;;2.03;0.50;;;;;;;;;;5013994;28;20621;-63